sensor_id;sensor_type;location;lat;lon;timestamp;P1;durP1;ratioP1;P2;durP2;ratioP2
45274;SDS011;31019;43.780;25.948;2022-10-28T00:01:08;95.97;;;86.57;;
45274;SDS011;31019;43.780;25.948;2022-10-28T00:03:39;89.60;;;67.60;;
45274;SDS011;31019;43.780;25.948;2022-10-28T00:06:07;92.43;;;78.38;;
45274;SDS011;31019;43.780;25.948;2022-10-28T00:08:36;79.75;;;73.95;;
45274;SDS011;31019;43.780;25.948;2022-10-28T00:11:04;74.10;;;68.75;;
45274;SDS011;31019;43.780;25.948;2022-10-28T00:13:32;85.28;;;79.88;;
45274;SDS011;31019;43.780;25.948;2022-10-28T00:16:03;84.68;;;79.65;;
45274;SDS011;31019;43.780;25.948;2022-10-28T00:18:34;83.35;;;78.10;;
45274;SDS011;31019;43.780;25.948;2022-10-28T00:21:03;77.43;;;71.95;;
45274;SDS011;31019;43.780;25.948;2022-10-28T00:23:31;76.53;;;71.72;;
45274;SDS011;31019;43.780;25.948;2022-10-28T00:26:05;70.90;;;66.50;;
45274;SDS011;31019;43.780;25.948;2022-10-28T00:28:33;77.38;;;72.63;;
45274;SDS011;31019;43.780;25.948;2022-10-28T00:31:04;76.85;;;72.35;;
45274;SDS011;31019;43.780;25.948;2022-10-28T00:33:32;80.25;;;74.82;;
45274;SDS011;31019;43.780;25.948;2022-10-28T00:36:07;77.95;;;72.50;;
45274;SDS011;31019;43.780;25.948;2022-10-28T00:38:38;78.00;;;71.57;;
45274;SDS011;31019;43.780;25.948;2022-10-28T00:41:06;79.63;;;74.03;;
45274;SDS011;31019;43.780;25.948;2022-10-28T00:43:34;86.88;;;80.97;;
45274;SDS011;31019;43.780;25.948;2022-10-28T00:46:03;87.88;;;82.65;;
45274;SDS011;31019;43.780;25.948;2022-10-28T00:48:36;84.97;;;79.65;;
45274;SDS011;31019;43.780;25.948;2022-10-28T00:51:05;97.97;;;89.43;;
45274;SDS011;31019;43.780;25.948;2022-10-28T00:53:35;96.13;;;87.13;;
45274;SDS011;31019;43.780;25.948;2022-10-28T00:56:03;120.90;;;109.18;;
45274;SDS011;31019;43.780;25.948;2022-10-28T00:58:32;118.63;;;102.88;;
45274;SDS011;31019;43.780;25.948;2022-10-28T01:00:59;97.20;;;87.18;;
45274;SDS011;31019;43.780;25.948;2022-10-28T01:03:27;104.68;;;95.40;;
45274;SDS011;31019;43.780;25.948;2022-10-28T01:05:53;113.00;;;103.57;;
45274;SDS011;31019;43.780;25.948;2022-10-28T01:08:22;71.65;;;56.38;;
45274;SDS011;31019;43.780;25.948;2022-10-28T01:13:55;73.65;;;63.13;;
45274;SDS011;31019;43.780;25.948;2022-10-28T01:16:36;76.85;;;68.82;;
45274;SDS011;31019;43.780;25.948;2022-10-28T01:19:14;68.35;;;61.38;;
45274;SDS011;31019;43.780;25.948;2022-10-28T01:22:05;59.40;;;53.63;;
45274;SDS011;31019;43.780;25.948;2022-10-28T01:24:45;64.90;;;58.90;;
45274;SDS011;31019;43.780;25.948;2022-10-28T01:30:33;62.03;;;56.40;;
45274;SDS011;31019;43.780;25.948;2022-10-28T01:33:11;54.90;;;50.22;;
45274;SDS011;31019;43.780;25.948;2022-10-28T01:35:48;58.33;;;53.85;;
45274;SDS011;31019;43.780;25.948;2022-10-28T01:38:21;55.25;;;50.88;;
45274;SDS011;31019;43.780;25.948;2022-10-28T01:41:00;47.33;;;43.00;;
45274;SDS011;31019;43.780;25.948;2022-10-28T01:43:35;50.20;;;46.38;;
45274;SDS011;31019;43.780;25.948;2022-10-28T01:46:12;46.33;;;42.88;;
45274;SDS011;31019;43.780;25.948;2022-10-28T01:48:46;50.05;;;46.63;;
45274;SDS011;31019;43.780;25.948;2022-10-28T01:51:20;50.00;;;46.25;;
45274;SDS011;31019;43.780;25.948;2022-10-28T01:56:24;47.85;;;44.50;;
45274;SDS011;31019;43.780;25.948;2022-10-28T01:58:55;48.63;;;44.67;;
45274;SDS011;31019;43.780;25.948;2022-10-28T02:01:25;47.08;;;43.00;;
45274;SDS011;31019;43.780;25.948;2022-10-28T02:03:55;48.83;;;44.97;;
45274;SDS011;31019;43.780;25.948;2022-10-28T02:06:23;50.38;;;44.60;;
45274;SDS011;31019;43.780;25.948;2022-10-28T02:09:01;45.38;;;41.70;;
45274;SDS011;31019;43.780;25.948;2022-10-28T02:17:18;42.47;;;39.40;;
45274;SDS011;31019;43.780;25.948;2022-10-28T02:19:54;47.25;;;44.08;;
45274;SDS011;31019;43.780;25.948;2022-10-28T02:22:34;43.92;;;40.92;;
45274;SDS011;31019;43.780;25.948;2022-10-28T02:25:11;72.78;;;68.05;;
45274;SDS011;31019;43.780;25.948;2022-10-28T02:27:43;66.28;;;61.67;;
45274;SDS011;31019;43.780;25.948;2022-10-28T02:30:13;72.47;;;67.63;;
45274;SDS011;31019;43.780;25.948;2022-10-28T02:32:44;66.57;;;62.17;;
45274;SDS011;31019;43.780;25.948;2022-10-28T02:35:17;63.22;;;58.92;;
45274;SDS011;31019;43.780;25.948;2022-10-28T02:37:49;60.72;;;56.80;;
45274;SDS011;31019;43.780;25.948;2022-10-28T02:40:19;61.55;;;57.45;;
45274;SDS011;31019;43.780;25.948;2022-10-28T02:42:51;55.03;;;51.35;;
45274;SDS011;31019;43.780;25.948;2022-10-28T02:45:22;54.70;;;50.55;;
45274;SDS011;31019;43.780;25.948;2022-10-28T02:50:25;49.70;;;46.40;;
45274;SDS011;31019;43.780;25.948;2022-10-28T02:52:57;50.85;;;47.05;;
45274;SDS011;31019;43.780;25.948;2022-10-28T02:55:28;51.30;;;47.70;;
45274;SDS011;31019;43.780;25.948;2022-10-28T02:58:02;52.58;;;48.47;;
45274;SDS011;31019;43.780;25.948;2022-10-28T03:00:30;72.30;;;67.78;;
45274;SDS011;31019;43.780;25.948;2022-10-28T03:02:58;54.55;;;50.75;;
45274;SDS011;31019;43.780;25.948;2022-10-28T03:05:26;58.33;;;54.25;;
45274;SDS011;31019;43.780;25.948;2022-10-28T03:07:53;55.65;;;52.28;;
45274;SDS011;31019;43.780;25.948;2022-10-28T03:10:20;53.38;;;49.72;;
45274;SDS011;31019;43.780;25.948;2022-10-28T03:12:46;51.60;;;47.83;;
45274;SDS011;31019;43.780;25.948;2022-10-28T03:15:13;47.67;;;44.47;;
45274;SDS011;31019;43.780;25.948;2022-10-28T03:17:40;49.20;;;45.65;;
45274;SDS011;31019;43.780;25.948;2022-10-28T03:20:07;52.13;;;48.60;;
45274;SDS011;31019;43.780;25.948;2022-10-28T03:22:36;59.13;;;55.50;;
45274;SDS011;31019;43.780;25.948;2022-10-28T03:25:03;56.78;;;53.05;;
45274;SDS011;31019;43.780;25.948;2022-10-28T03:27:30;65.10;;;61.05;;
45274;SDS011;31019;43.780;25.948;2022-10-28T03:29:57;67.15;;;62.70;;
45274;SDS011;31019;43.780;25.948;2022-10-28T03:32:24;55.90;;;52.10;;
45274;SDS011;31019;43.780;25.948;2022-10-28T03:34:50;54.53;;;50.92;;
45274;SDS011;31019;43.780;25.948;2022-10-28T03:37:17;52.72;;;49.22;;
45274;SDS011;31019;43.780;25.948;2022-10-28T03:39:45;56.22;;;52.22;;
45274;SDS011;31019;43.780;25.948;2022-10-28T03:42:12;67.03;;;63.13;;
45274;SDS011;31019;43.780;25.948;2022-10-28T03:44:39;68.93;;;64.43;;
45274;SDS011;31019;43.780;25.948;2022-10-28T03:47:05;69.78;;;65.63;;
45274;SDS011;31019;43.780;25.948;2022-10-28T03:49:32;71.68;;;67.07;;
45274;SDS011;31019;43.780;25.948;2022-10-28T03:52:00;62.38;;;58.40;;
45274;SDS011;31019;43.780;25.948;2022-10-28T03:54:30;65.82;;;61.58;;
45274;SDS011;31019;43.780;25.948;2022-10-28T03:56:58;72.50;;;68.28;;
45274;SDS011;31019;43.780;25.948;2022-10-28T03:59:24;77.93;;;73.03;;
45274;SDS011;31019;43.780;25.948;2022-10-28T04:01:51;82.03;;;76.72;;
45274;SDS011;31019;43.780;25.948;2022-10-28T04:04:18;76.47;;;71.45;;
45274;SDS011;31019;43.780;25.948;2022-10-28T04:06:45;78.47;;;73.45;;
45274;SDS011;31019;43.780;25.948;2022-10-28T04:09:12;44.97;;;41.80;;
45274;SDS011;31019;43.780;25.948;2022-10-28T04:11:38;42.28;;;39.28;;
45274;SDS011;31019;43.780;25.948;2022-10-28T04:14:06;44.08;;;41.08;;
45274;SDS011;31019;43.780;25.948;2022-10-28T04:16:33;46.05;;;42.55;;
45274;SDS011;31019;43.780;25.948;2022-10-28T04:19:00;45.55;;;42.28;;
45274;SDS011;31019;43.780;25.948;2022-10-28T04:21:27;43.60;;;40.80;;
45274;SDS011;31019;43.780;25.948;2022-10-28T04:23:53;43.63;;;40.65;;
45274;SDS011;31019;43.780;25.948;2022-10-28T04:26:20;42.72;;;40.00;;
45274;SDS011;31019;43.780;25.948;2022-10-28T04:28:47;42.47;;;39.67;;
45274;SDS011;31019;43.780;25.948;2022-10-28T04:31:15;43.78;;;40.72;;
45274;SDS011;31019;43.780;25.948;2022-10-28T04:33:42;41.47;;;38.67;;
45274;SDS011;31019;43.780;25.948;2022-10-28T04:36:08;44.67;;;41.58;;
45274;SDS011;31019;43.780;25.948;2022-10-28T04:38:35;45.85;;;42.75;;
45274;SDS011;31019;43.780;25.948;2022-10-28T04:41:02;43.22;;;39.60;;
45274;SDS011;31019;43.780;25.948;2022-10-28T04:43:29;39.35;;;36.30;;
45274;SDS011;31019;43.780;25.948;2022-10-28T04:45:56;42.05;;;38.50;;
45274;SDS011;31019;43.780;25.948;2022-10-28T04:48:24;43.65;;;40.15;;
45274;SDS011;31019;43.780;25.948;2022-10-28T04:50:50;41.35;;;37.45;;
45274;SDS011;31019;43.780;25.948;2022-10-28T04:53:17;39.97;;;37.17;;
45274;SDS011;31019;43.780;25.948;2022-10-28T04:55:44;43.83;;;40.60;;
45274;SDS011;31019;43.780;25.948;2022-10-28T04:58:11;40.88;;;37.67;;
45274;SDS011;31019;43.780;25.948;2022-10-28T05:00:37;42.25;;;38.78;;
45274;SDS011;31019;43.780;25.948;2022-10-28T05:03:04;40.95;;;37.70;;
45274;SDS011;31019;43.780;25.948;2022-10-28T05:05:32;44.42;;;40.50;;
45274;SDS011;31019;43.780;25.948;2022-10-28T05:07:59;43.20;;;39.75;;
45274;SDS011;31019;43.780;25.948;2022-10-28T05:10:26;44.95;;;40.95;;
45274;SDS011;31019;43.780;25.948;2022-10-28T05:12:54;43.65;;;39.95;;
45274;SDS011;31019;43.780;25.948;2022-10-28T05:15:20;42.47;;;39.13;;
45274;SDS011;31019;43.780;25.948;2022-10-28T05:17:47;44.28;;;40.70;;
45274;SDS011;31019;43.780;25.948;2022-10-28T05:20:15;44.80;;;41.28;;
45274;SDS011;31019;43.780;25.948;2022-10-28T05:22:47;44.72;;;40.15;;
45274;SDS011;31019;43.780;25.948;2022-10-28T05:25:16;45.08;;;40.55;;
45274;SDS011;31019;43.780;25.948;2022-10-28T05:27:43;43.35;;;40.28;;
45274;SDS011;31019;43.780;25.948;2022-10-28T05:30:10;43.13;;;39.90;;
45274;SDS011;31019;43.780;25.948;2022-10-28T05:32:38;42.03;;;38.95;;
45274;SDS011;31019;43.780;25.948;2022-10-28T05:35:05;41.78;;;38.45;;
45274;SDS011;31019;43.780;25.948;2022-10-28T05:37:32;42.13;;;38.72;;
45274;SDS011;31019;43.780;25.948;2022-10-28T05:40:00;45.55;;;41.95;;
45274;SDS011;31019;43.780;25.948;2022-10-28T05:42:27;45.50;;;41.97;;
45274;SDS011;31019;43.780;25.948;2022-10-28T05:44:54;45.13;;;41.35;;
45274;SDS011;31019;43.780;25.948;2022-10-28T05:47:21;46.92;;;43.35;;
45274;SDS011;31019;43.780;25.948;2022-10-28T05:49:47;48.80;;;45.47;;
45274;SDS011;31019;43.780;25.948;2022-10-28T05:52:14;51.60;;;48.05;;
45274;SDS011;31019;43.780;25.948;2022-10-28T05:54:41;46.60;;;43.40;;
45274;SDS011;31019;43.780;25.948;2022-10-28T05:57:09;45.78;;;42.53;;
45274;SDS011;31019;43.780;25.948;2022-10-28T05:59:36;48.03;;;44.78;;
45274;SDS011;31019;43.780;25.948;2022-10-28T06:02:02;46.20;;;43.17;;
45274;SDS011;31019;43.780;25.948;2022-10-28T06:04:29;49.40;;;46.17;;
45274;SDS011;31019;43.780;25.948;2022-10-28T06:06:57;46.92;;;43.38;;
45274;SDS011;31019;43.780;25.948;2022-10-28T06:09:26;48.83;;;45.63;;
45274;SDS011;31019;43.780;25.948;2022-10-28T06:11:53;47.47;;;44.08;;
45274;SDS011;31019;43.780;25.948;2022-10-28T06:14:21;48.03;;;44.78;;
45274;SDS011;31019;43.780;25.948;2022-10-28T06:16:48;49.40;;;45.60;;
45274;SDS011;31019;43.780;25.948;2022-10-28T06:19:15;48.17;;;44.40;;
45274;SDS011;31019;43.780;25.948;2022-10-28T06:21:42;47.72;;;44.53;;
45274;SDS011;31019;43.780;25.948;2022-10-28T06:24:09;49.20;;;46.10;;
45274;SDS011;31019;43.780;25.948;2022-10-28T06:26:36;49.42;;;45.50;;
45274;SDS011;31019;43.780;25.948;2022-10-28T06:29:02;47.97;;;44.83;;
45274;SDS011;31019;43.780;25.948;2022-10-28T06:31:31;44.50;;;41.67;;
45274;SDS011;31019;43.780;25.948;2022-10-28T06:33:57;46.22;;;42.83;;
45274;SDS011;31019;43.780;25.948;2022-10-28T06:36:24;49.72;;;45.80;;
45274;SDS011;31019;43.780;25.948;2022-10-28T06:38:52;52.80;;;48.25;;
45274;SDS011;31019;43.780;25.948;2022-10-28T06:41:19;52.38;;;47.55;;
45274;SDS011;31019;43.780;25.948;2022-10-28T06:43:45;65.60;;;55.10;;
45274;SDS011;31019;43.780;25.948;2022-10-28T06:46:12;58.83;;;53.00;;
45274;SDS011;31019;43.780;25.948;2022-10-28T06:48:40;55.60;;;49.97;;
45274;SDS011;31019;43.780;25.948;2022-10-28T06:51:08;46.88;;;43.88;;
45274;SDS011;31019;43.780;25.948;2022-10-28T06:53:35;47.80;;;44.30;;
45274;SDS011;31019;43.780;25.948;2022-10-28T06:56:02;48.28;;;45.13;;
45274;SDS011;31019;43.780;25.948;2022-10-28T06:58:29;46.63;;;43.75;;
45274;SDS011;31019;43.780;25.948;2022-10-28T07:00:55;45.50;;;42.90;;
45274;SDS011;31019;43.780;25.948;2022-10-28T07:03:22;45.22;;;42.00;;
45274;SDS011;31019;43.780;25.948;2022-10-28T07:05:50;44.90;;;42.13;;
45274;SDS011;31019;43.780;25.948;2022-10-28T07:08:17;44.60;;;41.90;;
45274;SDS011;31019;43.780;25.948;2022-10-28T07:10:44;44.25;;;41.17;;
45274;SDS011;31019;43.780;25.948;2022-10-28T07:13:19;44.22;;;41.22;;
45274;SDS011;31019;43.780;25.948;2022-10-28T07:15:49;44.38;;;41.78;;
45274;SDS011;31019;43.780;25.948;2022-10-28T07:18:16;52.88;;;48.85;;
45274;SDS011;31019;43.780;25.948;2022-10-28T07:20:43;53.90;;;49.92;;
45274;SDS011;31019;43.780;25.948;2022-10-28T07:23:11;52.20;;;48.63;;
45274;SDS011;31019;43.780;25.948;2022-10-28T07:25:38;47.70;;;44.40;;
45274;SDS011;31019;43.780;25.948;2022-10-28T07:28:06;46.53;;;43.38;;
45274;SDS011;31019;43.780;25.948;2022-10-28T07:30:33;45.25;;;42.30;;
45274;SDS011;31019;43.780;25.948;2022-10-28T07:33:00;45.25;;;42.33;;
45274;SDS011;31019;43.780;25.948;2022-10-28T07:35:28;46.03;;;43.20;;
45274;SDS011;31019;43.780;25.948;2022-10-28T07:37:56;45.92;;;43.15;;
45274;SDS011;31019;43.780;25.948;2022-10-28T07:40:25;49.55;;;46.75;;
45274;SDS011;31019;43.780;25.948;2022-10-28T07:42:51;48.15;;;45.30;;
45274;SDS011;31019;43.780;25.948;2022-10-28T07:45:18;48.10;;;44.97;;
45274;SDS011;31019;43.780;25.948;2022-10-28T07:47:45;46.22;;;43.08;;
45274;SDS011;31019;43.780;25.948;2022-10-28T07:50:12;48.55;;;45.30;;
45274;SDS011;31019;43.780;25.948;2022-10-28T07:52:39;46.75;;;44.05;;
45274;SDS011;31019;43.780;25.948;2022-10-28T07:55:06;45.67;;;42.95;;
45274;SDS011;31019;43.780;25.948;2022-10-28T07:57:36;46.80;;;43.67;;
45274;SDS011;31019;43.780;25.948;2022-10-28T08:00:04;46.35;;;43.38;;
45274;SDS011;31019;43.780;25.948;2022-10-28T08:02:32;46.40;;;43.60;;
45274;SDS011;31019;43.780;25.948;2022-10-28T08:04:58;49.88;;;46.78;;
45274;SDS011;31019;43.780;25.948;2022-10-28T08:07:26;47.20;;;44.35;;
45274;SDS011;31019;43.780;25.948;2022-10-28T08:09:53;47.40;;;44.22;;
45274;SDS011;31019;43.780;25.948;2022-10-28T08:12:20;47.53;;;44.33;;
45274;SDS011;31019;43.780;25.948;2022-10-28T08:14:48;46.30;;;43.40;;
45274;SDS011;31019;43.780;25.948;2022-10-28T08:17:15;47.70;;;44.92;;
45274;SDS011;31019;43.780;25.948;2022-10-28T08:19:42;47.55;;;44.60;;
45274;SDS011;31019;43.780;25.948;2022-10-28T08:22:08;47.30;;;44.13;;
45274;SDS011;31019;43.780;25.948;2022-10-28T08:24:35;47.20;;;43.97;;
45274;SDS011;31019;43.780;25.948;2022-10-28T08:27:02;46.45;;;43.65;;
45274;SDS011;31019;43.780;25.948;2022-10-28T08:29:29;47.53;;;44.67;;
45274;SDS011;31019;43.780;25.948;2022-10-28T08:31:57;45.90;;;43.20;;
45274;SDS011;31019;43.780;25.948;2022-10-28T08:34:24;46.33;;;43.63;;
45274;SDS011;31019;43.780;25.948;2022-10-28T08:36:53;44.97;;;42.40;;
45274;SDS011;31019;43.780;25.948;2022-10-28T08:39:20;46.83;;;43.83;;
45274;SDS011;31019;43.780;25.948;2022-10-28T08:41:49;46.88;;;44.08;;
45274;SDS011;31019;43.780;25.948;2022-10-28T08:47:32;49.83;;;46.53;;
45274;SDS011;31019;43.780;25.948;2022-10-28T08:50:09;49.40;;;46.33;;
45274;SDS011;31019;43.780;25.948;2022-10-28T08:52:40;50.50;;;47.40;;
45274;SDS011;31019;43.780;25.948;2022-10-28T08:55:13;48.85;;;46.30;;
45274;SDS011;31019;43.780;25.948;2022-10-28T08:57:46;48.20;;;45.60;;
45274;SDS011;31019;43.780;25.948;2022-10-28T09:00:17;49.03;;;46.22;;
45274;SDS011;31019;43.780;25.948;2022-10-28T09:02:51;48.50;;;45.60;;
45274;SDS011;31019;43.780;25.948;2022-10-28T09:05:23;47.88;;;44.65;;
45274;SDS011;31019;43.780;25.948;2022-10-28T09:07:51;47.75;;;44.63;;
45274;SDS011;31019;43.780;25.948;2022-10-28T09:10:25;49.28;;;45.75;;
45274;SDS011;31019;43.780;25.948;2022-10-28T09:13:02;50.00;;;46.53;;
45274;SDS011;31019;43.780;25.948;2022-10-28T09:15:36;50.53;;;47.42;;
45274;SDS011;31019;43.780;25.948;2022-10-28T09:18:11;50.03;;;46.78;;
45274;SDS011;31019;43.780;25.948;2022-10-28T09:20:45;47.33;;;44.53;;
45274;SDS011;31019;43.780;25.948;2022-10-28T09:23:19;45.67;;;42.70;;
45274;SDS011;31019;43.780;25.948;2022-10-28T09:25:52;46.58;;;43.75;;
45274;SDS011;31019;43.780;25.948;2022-10-28T09:28:34;48.20;;;45.50;;
45274;SDS011;31019;43.780;25.948;2022-10-28T09:31:13;44.87;;;41.87;;
45274;SDS011;31019;43.780;25.948;2022-10-28T09:33:49;48.05;;;45.13;;
45274;SDS011;31019;43.780;25.948;2022-10-28T09:36:26;46.78;;;43.63;;
45274;SDS011;31019;43.780;25.948;2022-10-28T09:38:58;48.13;;;45.15;;
45274;SDS011;31019;43.780;25.948;2022-10-28T09:41:30;46.63;;;43.72;;
45274;SDS011;31019;43.780;25.948;2022-10-28T09:44:00;47.55;;;44.55;;
45274;SDS011;31019;43.780;25.948;2022-10-28T09:46:32;49.88;;;46.00;;
45274;SDS011;31019;43.780;25.948;2022-10-28T09:49:03;53.05;;;48.72;;
45274;SDS011;31019;43.780;25.948;2022-10-28T09:51:32;72.13;;;58.97;;
45274;SDS011;31019;43.780;25.948;2022-10-28T09:54:07;51.60;;;47.55;;
45274;SDS011;31019;43.780;25.948;2022-10-28T09:56:35;50.60;;;47.30;;
45274;SDS011;31019;43.780;25.948;2022-10-28T09:59:02;52.50;;;48.67;;
45274;SDS011;31019;43.780;25.948;2022-10-28T10:01:31;49.10;;;45.70;;
45274;SDS011;31019;43.780;25.948;2022-10-28T10:03:59;52.88;;;48.95;;
45274;SDS011;31019;43.780;25.948;2022-10-28T10:06:28;49.80;;;46.20;;
45274;SDS011;31019;43.780;25.948;2022-10-28T10:08:58;48.58;;;45.28;;
45274;SDS011;31019;43.780;25.948;2022-10-28T10:11:26;47.72;;;44.22;;
45274;SDS011;31019;43.780;25.948;2022-10-28T10:13:57;48.10;;;45.10;;
45274;SDS011;31019;43.780;25.948;2022-10-28T10:16:33;52.83;;;49.83;;
45274;SDS011;31019;43.780;25.948;2022-10-28T10:19:07;47.75;;;44.85;;
45274;SDS011;31019;43.780;25.948;2022-10-28T10:21:40;46.42;;;43.78;;
45274;SDS011;31019;43.780;25.948;2022-10-28T10:24:25;48.13;;;45.30;;
45274;SDS011;31019;43.780;25.948;2022-10-28T10:26:55;48.78;;;45.58;;
45274;SDS011;31019;43.780;25.948;2022-10-28T10:29:22;48.40;;;45.40;;
45274;SDS011;31019;43.780;25.948;2022-10-28T10:32:02;47.33;;;44.17;;
45274;SDS011;31019;43.780;25.948;2022-10-28T10:34:30;49.05;;;45.35;;
45274;SDS011;31019;43.780;25.948;2022-10-28T10:36:59;46.80;;;43.78;;
45274;SDS011;31019;43.780;25.948;2022-10-28T10:39:26;47.35;;;44.30;;
45274;SDS011;31019;43.780;25.948;2022-10-28T10:42:00;45.35;;;42.65;;
45274;SDS011;31019;43.780;25.948;2022-10-28T10:44:30;44.92;;;42.13;;
45274;SDS011;31019;43.780;25.948;2022-10-28T10:47:19;48.83;;;45.17;;
45274;SDS011;31019;43.780;25.948;2022-10-28T10:49:46;45.42;;;42.67;;
45274;SDS011;31019;43.780;25.948;2022-10-28T10:52:18;45.17;;;42.47;;
45274;SDS011;31019;43.780;25.948;2022-10-28T10:54:55;44.58;;;41.85;;
45274;SDS011;31019;43.780;25.948;2022-10-28T10:57:26;44.50;;;41.90;;
45274;SDS011;31019;43.780;25.948;2022-10-28T10:59:54;45.50;;;42.78;;
45274;SDS011;31019;43.780;25.948;2022-10-28T11:02:22;46.47;;;43.55;;
45274;SDS011;31019;43.780;25.948;2022-10-28T11:04:53;45.25;;;42.35;;
45274;SDS011;31019;43.780;25.948;2022-10-28T11:07:23;44.85;;;41.95;;
45274;SDS011;31019;43.780;25.948;2022-10-28T11:09:52;44.85;;;41.97;;
45274;SDS011;31019;43.780;25.948;2022-10-28T11:12:23;49.28;;;44.85;;
45274;SDS011;31019;43.780;25.948;2022-10-28T11:14:53;46.78;;;43.88;;
45274;SDS011;31019;43.780;25.948;2022-10-28T11:17:22;47.00;;;43.95;;
45274;SDS011;31019;43.780;25.948;2022-10-28T11:19:52;46.78;;;43.72;;
45274;SDS011;31019;43.780;25.948;2022-10-28T11:22:25;47.95;;;45.00;;
45274;SDS011;31019;43.780;25.948;2022-10-28T11:25:07;44.67;;;42.00;;
45274;SDS011;31019;43.780;25.948;2022-10-28T11:27:48;43.78;;;41.03;;
45274;SDS011;31019;43.780;25.948;2022-10-28T11:30:21;45.20;;;42.50;;
45274;SDS011;31019;43.780;25.948;2022-10-28T11:32:58;46.25;;;43.35;;
45274;SDS011;31019;43.780;25.948;2022-10-28T11:35:46;46.45;;;43.72;;
45274;SDS011;31019;43.780;25.948;2022-10-28T11:38:23;45.15;;;42.53;;
45274;SDS011;31019;43.780;25.948;2022-10-28T11:41:04;44.92;;;42.03;;
45274;SDS011;31019;43.780;25.948;2022-10-28T11:43:44;43.88;;;40.78;;
45274;SDS011;31019;43.780;25.948;2022-10-28T11:46:16;44.00;;;41.47;;
45274;SDS011;31019;43.780;25.948;2022-10-28T11:48:59;44.53;;;41.72;;
45274;SDS011;31019;43.780;25.948;2022-10-28T11:51:48;42.65;;;40.05;;
45274;SDS011;31019;43.780;25.948;2022-10-28T11:54:30;44.42;;;41.42;;
45274;SDS011;31019;43.780;25.948;2022-10-28T11:57:10;45.55;;;42.50;;
45274;SDS011;31019;43.780;25.948;2022-10-28T11:59:54;44.65;;;41.78;;
45274;SDS011;31019;43.780;25.948;2022-10-28T12:02:42;45.55;;;42.30;;
45274;SDS011;31019;43.780;25.948;2022-10-28T12:05:21;42.85;;;40.08;;
45274;SDS011;31019;43.780;25.948;2022-10-28T12:07:57;43.85;;;40.85;;
45274;SDS011;31019;43.780;25.948;2022-10-28T12:10:35;43.05;;;40.28;;
45274;SDS011;31019;43.780;25.948;2022-10-28T12:13:11;40.95;;;38.35;;
45274;SDS011;31019;43.780;25.948;2022-10-28T12:15:47;41.50;;;38.90;;
45274;SDS011;31019;43.780;25.948;2022-10-28T12:18:21;45.70;;;43.00;;
45274;SDS011;31019;43.780;25.948;2022-10-28T12:20:54;43.20;;;40.50;;
45274;SDS011;31019;43.780;25.948;2022-10-28T12:23:24;44.17;;;41.15;;
45274;SDS011;31019;43.780;25.948;2022-10-28T12:25:55;40.97;;;38.38;;
45274;SDS011;31019;43.780;25.948;2022-10-28T12:28:24;41.03;;;38.33;;
45274;SDS011;31019;43.780;25.948;2022-10-28T12:30:55;40.60;;;37.83;;
45274;SDS011;31019;43.780;25.948;2022-10-28T12:33:24;41.72;;;38.78;;
45274;SDS011;31019;43.780;25.948;2022-10-28T12:36:09;42.78;;;39.72;;
45274;SDS011;31019;43.780;25.948;2022-10-28T12:38:43;42.38;;;39.70;;
45274;SDS011;31019;43.780;25.948;2022-10-28T12:41:16;41.80;;;38.80;;
45274;SDS011;31019;43.780;25.948;2022-10-28T12:43:48;42.25;;;39.47;;
45274;SDS011;31019;43.780;25.948;2022-10-28T12:46:21;41.70;;;38.70;;
45274;SDS011;31019;43.780;25.948;2022-10-28T12:48:55;40.88;;;38.28;;
45274;SDS011;31019;43.780;25.948;2022-10-28T12:51:29;41.97;;;38.88;;
45274;SDS011;31019;43.780;25.948;2022-10-28T12:54:01;43.10;;;40.13;;
45274;SDS011;31019;43.780;25.948;2022-10-28T12:56:41;41.40;;;38.70;;
45274;SDS011;31019;43.780;25.948;2022-10-28T12:59:14;40.60;;;37.65;;
45274;SDS011;31019;43.780;25.948;2022-10-28T13:01:47;41.40;;;38.80;;
45274;SDS011;31019;43.780;25.948;2022-10-28T13:04:15;40.97;;;38.10;;
45274;SDS011;31019;43.780;25.948;2022-10-28T13:09:41;41.67;;;38.97;;
45274;SDS011;31019;43.780;25.948;2022-10-28T13:12:35;41.97;;;39.42;;
45274;SDS011;31019;43.780;25.948;2022-10-28T13:18:11;38.92;;;36.22;;
45274;SDS011;31019;43.780;25.948;2022-10-28T13:20:58;42.25;;;39.25;;
45274;SDS011;31019;43.780;25.948;2022-10-28T13:23:32;41.28;;;38.28;;
45274;SDS011;31019;43.780;25.948;2022-10-28T13:26:11;41.78;;;38.80;;
45274;SDS011;31019;43.780;25.948;2022-10-28T13:28:48;40.47;;;37.97;;
45274;SDS011;31019;43.780;25.948;2022-10-28T13:31:18;39.42;;;37.03;;
45274;SDS011;31019;43.780;25.948;2022-10-28T13:33:46;42.90;;;40.25;;
45274;SDS011;31019;43.780;25.948;2022-10-28T13:36:17;40.55;;;37.70;;
45274;SDS011;31019;43.780;25.948;2022-10-28T13:38:49;39.83;;;37.15;;
45274;SDS011;31019;43.780;25.948;2022-10-28T13:41:28;41.63;;;38.78;;
45274;SDS011;31019;43.780;25.948;2022-10-28T13:47:04;39.50;;;36.85;;
45274;SDS011;31019;43.780;25.948;2022-10-28T13:53:31;43.10;;;39.70;;
45274;SDS011;31019;43.780;25.948;2022-10-28T13:56:00;41.67;;;38.33;;
45274;SDS011;31019;43.780;25.948;2022-10-28T13:58:47;40.60;;;37.80;;
45274;SDS011;31019;43.780;25.948;2022-10-28T14:04:04;41.63;;;38.40;;
45274;SDS011;31019;43.780;25.948;2022-10-28T14:06:44;40.63;;;37.80;;
45274;SDS011;31019;43.780;25.948;2022-10-28T14:09:17;41.38;;;38.47;;
45274;SDS011;31019;43.780;25.948;2022-10-28T14:11:56;40.05;;;37.45;;
45274;SDS011;31019;43.780;25.948;2022-10-28T14:14:29;43.13;;;40.20;;
45274;SDS011;31019;43.780;25.948;2022-10-28T14:16:59;43.13;;;40.33;;
45274;SDS011;31019;43.780;25.948;2022-10-28T14:19:26;41.88;;;38.92;;
45274;SDS011;31019;43.780;25.948;2022-10-28T14:21:54;42.20;;;39.00;;
45274;SDS011;31019;43.780;25.948;2022-10-28T14:24:31;60.53;;;54.75;;
45274;SDS011;31019;43.780;25.948;2022-10-28T14:29:45;44.70;;;40.83;;
45274;SDS011;31019;43.780;25.948;2022-10-28T14:35:15;46.17;;;42.05;;
45274;SDS011;31019;43.780;25.948;2022-10-28T14:41:03;45.88;;;41.90;;
45274;SDS011;31019;43.780;25.948;2022-10-28T14:43:47;46.22;;;41.95;;
45274;SDS011;31019;43.780;25.948;2022-10-28T14:46:29;52.10;;;42.47;;
45274;SDS011;31019;43.780;25.948;2022-10-28T14:49:13;44.07;;;40.40;;
45274;SDS011;31019;43.780;25.948;2022-10-28T14:51:45;42.75;;;39.85;;
45274;SDS011;31019;43.780;25.948;2022-10-28T14:54:14;42.40;;;39.40;;
45274;SDS011;31019;43.780;25.948;2022-10-28T14:56:44;44.13;;;40.42;;
45274;SDS011;31019;43.780;25.948;2022-10-28T14:59:19;44.10;;;40.97;;
45274;SDS011;31019;43.780;25.948;2022-10-28T15:01:54;46.03;;;41.88;;
45274;SDS011;31019;43.780;25.948;2022-10-28T15:04:30;45.00;;;41.25;;
45274;SDS011;31019;43.780;25.948;2022-10-28T15:06:59;44.53;;;41.05;;
45274;SDS011;31019;43.780;25.948;2022-10-28T15:09:27;43.90;;;41.03;;
45274;SDS011;31019;43.780;25.948;2022-10-28T15:11:55;46.35;;;42.10;;
45274;SDS011;31019;43.780;25.948;2022-10-28T15:14:28;43.20;;;40.50;;